Time,TemperatureF,DewpointF,PressureIn,WindDirection,WindDirectionDegrees,WindSpeedMPH,WindSpeedGustMPH,Humidity,HourlyPrecipIn,Conditions,Clouds,dailyrainin,SolarRadiationWatts/m^2,SoftwareType,DateUTC
2013-07-10 00:02:00,65.4,47.3,29.89,ENE,78,7.0,12.0,52,0.00,,,0.00,109,Wunderground v.1.15,2013-07-10 06:02:00,
2013-07-10 00:08:00,65.6,45.9,29.89,East,83,6.0,12.0,49,0.00,,,0.00,109,Wunderground v.1.15,2013-07-10 06:08:00,
2013-07-10 00:14:00,65.8,46.6,29.89,East,94,6.0,12.0,50,0.00,,,0.00,109,Wunderground v.1.15,2013-07-10 06:14:00,
2013-07-10 00:20:00,64.6,49.0,29.89,East,94,8.0,12.0,57,0.00,,,0.00,107,Wunderground v.1.15,2013-07-10 06:20:00,
2013-07-10 00:26:00,63.6,47.6,29.89,East,88,9.0,12.0,56,0.00,,,0.00,104,Wunderground v.1.15,2013-07-10 06:26:00,
2013-07-10 00:32:00,62.9,49.2,29.89,East,82,8.0,12.0,61,0.00,,,0.00,100,Wunderground v.1.15,2013-07-10 06:32:00,
2013-07-10 00:38:00,63.1,44.7,29.89,ENE,67,6.0,12.0,51,0.00,,,0.00,98,Wunderground v.1.15,2013-07-10 06:38:00,
2013-07-10 00:44:00,63.5,51.1,29.89,ESE,111,4.0,12.0,64,0.00,,,0.00,100,Wunderground v.1.15,2013-07-10 06:44:00,
2013-07-10 00:50:00,62.2,47.2,29.89,ESE,113,6.0,12.0,58,0.00,,,0.00,97,Wunderground v.1.15,2013-07-10 06:50:00,
2013-07-10 00:56:00,61.8,48.6,29.89,ESE,104,8.0,12.0,62,0.00,,,0.00,95,Wunderground v.1.15,2013-07-10 06:56:00,
2013-07-10 01:02:00,61.4,48.7,29.89,East,98,9.0,12.0,63,0.00,,,0.00,93,Wunderground v.1.15,2013-07-10 07:02:00,
2013-07-10 01:08:00,60.7,46.3,29.89,East,90,9.0,12.0,59,0.00,,,0.00,90,Wunderground v.1.15,2013-07-10 07:08:00,
2013-07-10 01:14:00,60.1,46.6,29.89,East,93,9.0,12.0,61,0.00,,,0.00,88,Wunderground v.1.15,2013-07-10 07:14:00,
2013-07-10 01:20:00,59.7,47.9,29.89,East,91,8.0,8.0,65,0.00,,,0.00,86,Wunderground v.1.15,2013-07-10 07:20:00,
2013-07-10 01:26:00,60.5,45.6,29.89,East,100,7.0,12.0,58,0.00,,,0.00,86,Wunderground v.1.15,2013-07-10 07:26:00,
2013-07-10 01:32:00,61.6,45.7,29.89,East,92,6.0,12.0,56,0.00,,,0.00,88,Wunderground v.1.15,2013-07-10 07:32:00,
2013-07-10 01:38:00,61.4,46.5,29.88,East,90,7.0,12.0,58,0.00,,,0.00,90,Wunderground v.1.15,2013-07-10 07:38:00,
2013-07-10 01:44:00,61.5,44.7,29.89,East,91,9.0,12.0,54,0.00,,,0.00,90,Wunderground v.1.15,2013-07-10 07:44:00,
2013-07-10 01:50:00,62.0,44.7,29.88,East,83,9.0,12.0,53,0.00,,,0.00,91,Wunderground v.1.15,2013-07-10 07:50:00,
2013-07-10 01:56:00,62.2,44.9,29.89,East,91,9.0,12.0,53,0.00,,,0.00,93,Wunderground v.1.15,2013-07-10 07:56:00,
2013-07-10 02:02:00,61.0,45.2,29.88,East,87,9.0,11.0,56,0.00,,,0.00,91,Wunderground v.1.15,2013-07-10 08:02:00,
2013-07-10 02:08:00,59.6,46.6,29.89,East,87,9.0,11.0,62,0.00,,,0.00,88,Wunderground v.1.15,2013-07-10 08:08:00,
2013-07-10 02:14:00,59.5,46.5,29.88,East,91,10.0,12.0,62,0.00,,,0.00,86,Wunderground v.1.15,2013-07-10 08:14:00,
2013-07-10 02:20:00,59.4,47.2,29.88,East,92,12.0,12.0,64,0.00,,,0.00,84,Wunderground v.1.15,2013-07-10 08:20:00,
2013-07-10 02:26:00,58.8,46.6,29.88,East,91,12.0,12.0,64,0.00,,,0.00,83,Wunderground v.1.15,2013-07-10 08:26:00,
2013-07-10 02:32:00,58.4,45.8,29.88,East,87,12.0,12.0,63,0.00,,,0.00,81,Wunderground v.1.15,2013-07-10 08:32:00,
2013-07-10 02:38:00,58.7,45.7,29.88,East,91,12.0,13.0,62,0.00,,,0.00,81,Wunderground v.1.15,2013-07-10 08:38:00,
2013-07-10 02:44:00,59.0,44.7,29.87,East,97,13.0,15.0,59,0.00,,,0.00,81,Wunderground v.1.15,2013-07-10 08:44:00,
2013-07-10 02:50:00,59.0,44.2,29.87,East,100,14.0,14.0,58,0.00,,,0.00,83,Wunderground v.1.15,2013-07-10 08:50:00,
2013-07-10 02:56:00,58.8,44.0,29.87,ESE,106,15.0,15.0,58,0.00,,,0.00,83,Wunderground v.1.15,2013-07-10 08:56:00,
2013-07-10 03:02:00,58.5,46.4,29.87,ESE,102,14.0,15.0,64,0.00,,,0.00,81,Wunderground v.1.15,2013-07-10 09:02:00,
2013-07-10 03:08:00,58.8,45.4,29.87,ESE,108,14.0,17.0,61,0.00,,,0.00,81,Wunderground v.1.15,2013-07-10 09:08:00,
2013-07-10 03:14:00,59.4,42.7,29.87,ESE,109,16.0,18.0,54,0.00,,,0.00,83,Wunderground v.1.15,2013-07-10 09:14:00,
2013-07-10 03:20:00,59.2,44.0,29.87,ESE,110,18.0,18.0,57,0.00,,,0.00,83,Wunderground v.1.15,2013-07-10 09:20:00,
2013-07-10 03:26:00,58.8,44.9,29.87,East,87,16.0,18.0,60,0.00,,,0.00,83,Wunderground v.1.15,2013-07-10 09:26:00,
2013-07-10 03:32:00,59.1,43.9,29.87,East,87,13.0,14.0,57,0.00,,,0.00,83,Wunderground v.1.15,2013-07-10 09:32:00,
2013-07-10 03:38:00,59.3,43.6,29.88,East,79,12.0,14.0,56,0.00,,,0.00,83,Wunderground v.1.15,2013-07-10 09:38:00,
2013-07-10 03:44:00,60.1,42.9,29.88,NE,56,13.0,14.0,53,0.00,,,0.00,84,Wunderground v.1.15,2013-07-10 09:44:00,
2013-07-10 03:50:00,60.4,41.7,29.88,NE,54,13.0,13.0,50,0.00,,,0.00,86,Wunderground v.1.15,2013-07-10 09:50:00,
2013-07-10 03:58:00,60.8,44.5,29.88,NE,43,10.0,13.0,55,0.00,,,0.00,88,Wunderground v.1.15,2013-07-10 09:58:00,
2013-07-10 04:04:00,60.6,42.4,29.88,East,87,7.0,11.0,51,0.00,,,0.00,86,Wunderground v.1.15,2013-07-10 10:04:00,
2013-07-10 04:12:00,60.5,43.3,29.88,ESE,102,6.0,11.0,53,0.00,,,0.00,86,Wunderground v.1.15,2013-07-10 10:12:00,
2013-07-10 04:20:00,60.0,45.2,29.88,East,97,8.0,11.0,58,0.00,,,0.00,86,Wunderground v.1.15,2013-07-10 10:20:00,
2013-07-10 04:26:00,59.3,45.0,29.88,ESE,108,9.0,12.0,59,0.00,,,0.00,84,Wunderground v.1.15,2013-07-10 10:26:00,
2013-07-10 04:32:00,58.1,43.8,29.88,ESE,122,11.0,11.0,59,0.00,,,0.00,81,Wunderground v.1.15,2013-07-10 10:32:00,
2013-07-10 04:38:00,57.5,43.7,29.88,ESE,120,11.0,11.0,60,0.00,,,0.00,79,Wunderground v.1.15,2013-07-10 10:38:00,
2013-07-10 04:44:00,57.1,44.2,29.88,ESE,104,12.0,13.0,62,0.00,,,0.00,76,Wunderground v.1.15,2013-07-10 10:44:00,
2013-07-10 04:50:00,57.3,46.0,29.88,ENE,77,11.0,11.0,66,0.00,,,0.00,76,Wunderground v.1.15,2013-07-10 10:50:00,
2013-07-10 04:56:00,57.3,42.6,29.88,NE,41,7.0,11.0,58,0.00,,,0.00,76,Wunderground v.1.15,2013-07-10 10:56:00,
2013-07-10 05:06:00,57.1,43.8,29.88,ENE,61,2.0,11.0,61,0.00,,,0.00,72,Wunderground v.1.15,2013-07-10 11:06:00,
2013-07-10 05:12:00,58.0,43.7,29.88,East,88,3.0,11.0,59,0.00,,,0.00,74,Wunderground v.1.15,2013-07-10 11:12:00,
2013-07-10 05:18:00,59.5,44.7,29.88,East,92,6.0,11.0,58,0.00,,,0.00,77,Wunderground v.1.15,2013-07-10 11:18:00,
2013-07-10 05:24:00,59.1,45.2,29.88,ESE,106,8.0,11.0,60,0.00,,,0.00,79,Wunderground v.1.15,2013-07-10 11:24:00,
2013-07-10 05:30:00,57.7,42.6,29.88,ESE,107,12.0,18.0,57,0.00,,,0.00,76,Wunderground v.1.15,2013-07-10 11:30:00,
2013-07-10 05:36:00,58.0,42.8,29.88,East,95,17.0,19.0,57,0.00,,,0.00,74,Wunderground v.1.15,2013-07-10 11:36:00,
2013-07-10 05:44:00,57.9,41.8,29.88,East,86,15.0,17.0,55,0.00,,,0.00,67,Wunderground v.1.15,2013-07-10 11:44:00,
2013-07-10 05:50:00,58.4,40.3,29.88,ENE,70,13.0,15.0,51,0.00,,,0.00,60,Wunderground v.1.15,2013-07-10 11:50:00,
2013-07-10 05:56:00,58.9,41.3,29.88,East,89,12.0,15.0,52,0.00,,,0.00,98,Wunderground v.1.15,2013-07-10 11:56:00,
2013-07-10 06:02:00,58.3,43.1,29.88,ESE,104,12.0,20.0,57,0.00,,,0.00,40,Wunderground v.1.15,2013-07-10 12:02:00,
2013-07-10 06:08:00,57.1,42.0,29.88,ESE,112,13.0,20.0,57,0.00,,,0.00,51,Wunderground v.1.15,2013-07-10 12:08:00,
2013-07-10 06:14:00,55.8,42.5,29.88,ESE,120,14.0,20.0,61,0.00,,,0.00,19,Wunderground v.1.15,2013-07-10 12:14:00,
2013-07-10 06:20:00,54.7,43.6,29.88,ESE,110,13.0,20.0,66,0.00,,,0.00,5,Wunderground v.1.15,2013-07-10 12:20:00,
2013-07-10 06:26:00,54.8,44.4,29.88,East,95,13.0,20.0,68,0.00,,,0.00,0,Wunderground v.1.15,2013-07-10 12:26:00,
2013-07-10 06:32:00,55.0,43.4,29.88,ESE,114,12.0,20.0,65,0.00,,,0.00,0,Wunderground v.1.15,2013-07-10 12:32:00,
2013-07-10 06:38:00,54.7,44.0,29.88,ESE,112,10.0,20.0,67,0.00,,,0.00,0,Wunderground v.1.15,2013-07-10 12:38:00,
2013-07-10 06:44:00,54.8,42.9,29.88,ESE,109,11.0,20.0,64,0.00,,,0.00,0,Wunderground v.1.15,2013-07-10 12:44:00,
2013-07-10 06:50:00,55.1,43.9,29.88,ESE,120,12.0,20.0,66,0.00,,,0.00,0,Wunderground v.1.15,2013-07-10 12:50:00,
2013-07-10 06:56:00,55.5,43.5,29.88,ESE,106,14.0,20.0,64,0.00,,,0.00,0,Wunderground v.1.15,2013-07-10 12:56:00,
2013-07-10 07:02:00,55.7,42.5,29.88,East,93,13.0,20.0,61,0.00,,,0.00,0,Wunderground v.1.15,2013-07-10 13:02:00,
2013-07-10 07:10:00,55.7,44.1,29.88,East,81,8.0,8.0,65,0.00,,,0.00,0,Wunderground v.1.15,2013-07-10 13:10:00,
2013-07-10 07:16:00,55.9,43.1,29.88,East,95,5.0,20.0,62,0.00,,,0.00,0,Wunderground v.1.15,2013-07-10 13:16:00,
2013-07-10 07:22:00,56.7,44.2,29.88,East,85,6.0,20.0,63,0.00,,,0.00,0,Wunderground v.1.15,2013-07-10 13:22:00,
2013-07-10 07:28:00,57.3,44.8,29.88,East,83,5.0,20.0,63,0.00,,,0.00,0,Wunderground v.1.15,2013-07-10 13:28:00,
2013-07-10 07:34:00,57.7,45.2,29.88,NE,42,4.0,20.0,63,0.00,,,0.00,0,Wunderground v.1.15,2013-07-10 13:34:00,
2013-07-10 07:40:00,57.9,43.2,29.88,NNE,33,4.0,4.0,58,0.00,,,0.00,0,Wunderground v.1.15,2013-07-10 13:40:00,
2013-07-10 07:48:00,58.4,43.2,29.88,NE,35,3.0,20.0,57,0.00,,,0.00,0,Wunderground v.1.15,2013-07-10 13:48:00,
2013-07-10 07:54:00,59.0,43.3,29.88,NE,35,2.0,20.0,56,0.00,,,0.00,0,Wunderground v.1.15,2013-07-10 13:54:00,
2013-07-10 08:00:00,60.2,45.4,29.88,NNE,22,4.0,4.0,58,0.00,,,0.00,0,Wunderground v.1.15,2013-07-10 14:00:00,
2013-07-10 08:10:00,61.6,44.3,29.88,NE,41,2.0,20.0,53,0.00,,,0.00,0,Wunderground v.1.15,2013-07-10 14:10:00,
2013-07-10 08:16:00,62.1,44.8,29.88,NNE,25,2.0,20.0,53,0.00,,,0.00,0,Wunderground v.1.15,2013-07-10 14:16:00,
2013-07-10 08:22:00,62.4,43.5,29.88,NNW,348,3.0,20.0,50,0.00,,,0.00,0,Wunderground v.1.15,2013-07-10 14:22:00,
2013-07-10 08:28:00,62.8,43.9,29.88,NNW,348,3.0,20.0,50,0.00,,,0.00,0,Wunderground v.1.15,2013-07-10 14:28:00,
2013-07-10 08:34:00,63.1,44.2,29.88,NNW,348,2.0,20.0,50,0.00,,,0.00,0,Wunderground v.1.15,2013-07-10 14:34:00,
2013-07-10 08:40:00,63.8,44.8,29.87,NNW,348,2.0,2.0,50,0.00,,,0.00,0,Wunderground v.1.15,2013-07-10 14:40:00,
2013-07-10 08:48:00,64.5,46.0,29.87,NW,314,3.0,20.0,51,0.00,,,0.00,0,Wunderground v.1.15,2013-07-10 14:48:00,
2013-07-10 08:54:00,64.8,45.7,29.87,NW,314,3.0,20.0,50,0.00,,,0.00,0,Wunderground v.1.15,2013-07-10 14:54:00,
2013-07-10 09:00:00,65.2,46.6,29.87,NW,314,2.0,20.0,51,0.00,,,0.00,0,Wunderground v.1.15,2013-07-10 15:00:00,
2013-07-10 09:08:00,66.0,45.7,29.86,NW,308,3.0,20.0,48,0.00,,,0.00,0,Wunderground v.1.15,2013-07-10 15:08:00,
2013-07-10 09:14:00,66.5,45.1,29.86,WNW,285,4.0,20.0,46,0.00,,,0.00,0,Wunderground v.1.15,2013-07-10 15:14:00,
2013-07-10 09:20:00,67.2,45.1,29.86,West,280,5.0,20.0,45,0.00,,,0.00,0,Wunderground v.1.15,2013-07-10 15:20:00,
2013-07-10 09:28:00,67.5,45.4,29.86,West,270,5.0,20.0,45,0.00,,,0.00,0,Wunderground v.1.15,2013-07-10 15:28:00,
2013-07-10 09:34:00,67.6,45.5,29.85,WSW,245,5.0,20.0,45,0.00,,,0.00,0,Wunderground v.1.15,2013-07-10 15:34:00,
2013-07-10 09:40:00,68.1,44.7,29.85,WSW,247,5.0,20.0,43,0.00,,,0.00,0,Wunderground v.1.15,2013-07-10 15:40:00,
2013-07-10 09:46:00,68.6,45.8,29.85,West,259,5.0,20.0,44,0.00,,,0.00,0,Wunderground v.1.15,2013-07-10 15:46:00,
2013-07-10 09:52:00,69.2,46.4,29.85,West,275,5.0,20.0,44,0.00,,,0.00,0,Wunderground v.1.15,2013-07-10 15:52:00,
2013-07-10 09:58:00,70.1,46.6,29.85,West,275,6.0,20.0,43,0.00,,,0.00,0,Wunderground v.1.15,2013-07-10 15:58:00,
2013-07-10 10:04:00,70.6,47.0,29.85,West,275,6.0,20.0,43,0.00,,,0.00,0,Wunderground v.1.15,2013-07-10 16:04:00,
2013-07-10 10:12:00,71.0,46.1,29.84,West,260,6.0,20.0,41,0.00,,,0.00,0,Wunderground v.1.15,2013-07-10 16:12:00,
2013-07-10 10:18:00,71.3,47.6,29.84,West,275,6.0,20.0,43,0.00,,,0.00,0,Wunderground v.1.15,2013-07-10 16:18:00,
2013-07-10 10:24:00,71.8,48.1,29.84,West,268,6.0,20.0,43,0.00,,,0.00,0,Wunderground v.1.15,2013-07-10 16:24:00,
2013-07-10 10:30:00,72.4,47.4,29.84,West,275,6.0,6.0,41,0.00,,,0.00,0,Wunderground v.1.15,2013-07-10 16:30:00,
2013-07-10 10:36:00,72.7,48.3,29.84,West,275,5.0,20.0,42,0.00,,,0.00,0,Wunderground v.1.15,2013-07-10 16:36:00,
2013-07-10 10:42:00,73.0,48.5,29.83,West,275,5.0,20.0,42,0.00,,,0.00,0,Wunderground v.1.15,2013-07-10 16:42:00,
2013-07-10 10:48:00,73.4,47.6,29.83,West,275,5.0,20.0,40,0.00,,,0.00,0,Wunderground v.1.15,2013-07-10 16:48:00,
2013-07-10 10:54:00,73.7,48.5,29.82,West,263,6.0,20.0,41,0.00,,,0.00,0,Wunderground v.1.15,2013-07-10 16:54:00,
2013-07-10 11:00:00,74.1,50.8,29.82,West,265,5.0,5.0,44,0.00,,,0.00,0,Wunderground v.1.15,2013-07-10 17:00:00,
2013-07-10 11:06:00,74.7,50.7,29.82,West,268,5.0,8.0,43,0.00,,,0.00,0,Wunderground v.1.15,2013-07-10 17:06:00,
2013-07-10 11:12:00,75.0,52.2,29.82,West,275,6.0,8.0,45,0.00,,,0.00,0,Wunderground v.1.15,2013-07-10 17:12:00,
2013-07-10 11:18:00,75.6,52.1,29.81,West,275,5.0,8.0,44,0.00,,,0.00,0,Wunderground v.1.15,2013-07-10 17:18:00,
2013-07-10 11:24:00,75.9,51.2,29.81,West,271,5.0,8.0,42,0.00,,,0.00,0,Wunderground v.1.15,2013-07-10 17:24:00,
2013-07-10 11:30:00,76.3,49.5,29.81,West,270,4.0,4.0,39,0.00,,,0.00,0,Wunderground v.1.15,2013-07-10 17:30:00,
2013-07-10 11:36:00,77.1,52.2,29.81,West,270,3.0,8.0,42,0.00,,,0.00,0,Wunderground v.1.15,2013-07-10 17:36:00,
2013-07-10 11:42:00,77.5,51.3,29.81,West,270,4.0,8.0,40,0.00,,,0.00,0,Wunderground v.1.15,2013-07-10 17:42:00,
2013-07-10 11:50:00,77.7,47.9,29.80,West,264,4.0,4.0,35,0.00,,,0.00,0,Wunderground v.1.15,2013-07-10 17:50:00,
2013-07-10 11:56:00,78.4,50.0,29.80,West,264,3.0,8.0,37,0.00,,,0.00,0,Wunderground v.1.15,2013-07-10 17:56:00,
2013-07-10 12:02:00,79.4,46.1,29.80,West,264,2.0,8.0,31,0.00,,,0.00,0,Wunderground v.1.15,2013-07-10 18:02:00,
2013-07-10 12:08:00,80.6,39.4,29.79,East,96,1.0,8.0,23,0.00,,,0.00,0,Wunderground v.1.15,2013-07-10 18:08:00,
2013-07-10 12:14:00,82.4,37.3,29.79,NE,47,5.0,14.0,20,0.00,,,0.00,0,Wunderground v.1.15,2013-07-10 18:14:00,
2013-07-10 12:20:00,83.2,35.3,29.78,East,93,9.0,9.0,18,0.00,,,0.00,0,Wunderground v.1.15,2013-07-10 18:20:00,
2013-07-10 12:26:00,83.3,38.0,29.78,ESE,109,10.0,14.0,20,0.00,,,0.00,0,Wunderground v.1.15,2013-07-10 18:26:00,
2013-07-10 12:32:00,83.2,37.9,29.78,ESE,112,15.0,21.0,20,0.00,,,0.00,0,Wunderground v.1.15,2013-07-10 18:32:00,
2013-07-10 12:38:00,83.2,41.5,29.78,SE,124,17.0,21.0,23,0.00,,,0.00,0,Wunderground v.1.15,2013-07-10 18:38:00,
2013-07-10 12:44:00,83.5,31.0,29.77,SE,130,17.0,20.0,15,0.00,,,0.00,0,Wunderground v.1.15,2013-07-10 18:44:00,
2013-07-10 12:50:00,83.9,29.6,29.77,ESE,120,18.0,18.0,14,0.00,,,0.00,0,Wunderground v.1.15,2013-07-10 18:50:00,
2013-07-10 12:58:00,84.2,33.1,29.77,ESE,115,15.0,18.0,16,0.00,,,0.00,0,Wunderground v.1.15,2013-07-10 18:58:00,
2013-07-10 13:04:00,84.7,30.2,29.77,ESE,112,12.0,14.0,14,0.00,,,0.00,0,Wunderground v.1.15,2013-07-10 19:04:00,
2013-07-10 13:10:00,84.8,28.5,29.77,ESE,114,9.0,9.0,13,0.00,,,0.00,0,Wunderground v.1.15,2013-07-10 19:10:00,
2013-07-10 13:16:00,85.0,30.4,29.76,SE,131,10.0,11.0,14,0.00,,,0.00,0,Wunderground v.1.15,2013-07-10 19:16:00,
2013-07-10 13:22:00,85.0,35.3,29.76,SSE,167,13.0,13.0,17,0.00,,,0.00,0,Wunderground v.1.15,2013-07-10 19:22:00,
2013-07-10 13:28:00,85.0,35.3,29.75,ESE,120,13.0,14.0,17,0.00,,,0.00,0,Wunderground v.1.15,2013-07-10 19:28:00,
2013-07-10 13:34:00,85.1,32.2,29.75,SE,143,12.0,13.0,15,0.00,,,0.00,0,Wunderground v.1.15,2013-07-10 19:34:00,
2013-07-10 13:42:00,85.3,32.4,29.75,SE,145,12.0,12.0,15,0.00,,,0.00,0,Wunderground v.1.15,2013-07-10 19:42:00,
2013-07-10 13:48:00,85.6,30.9,29.75,SE,135,10.0,12.0,14,0.00,,,0.00,0,Wunderground v.1.15,2013-07-10 19:48:00,
2013-07-10 13:54:00,86.0,29.4,29.74,East,93,9.0,15.0,13,0.00,,,0.00,0,Wunderground v.1.15,2013-07-10 19:54:00,
2013-07-10 14:00:00,86.1,29.5,29.73,ESE,113,13.0,13.0,13,0.00,,,0.00,0,Wunderground v.1.15,2013-07-10 20:00:00,
2013-07-10 14:06:00,85.8,41.3,29.73,SE,125,17.0,19.0,21,0.00,,,0.00,0,Wunderground v.1.15,2013-07-10 20:06:00,
2013-07-10 14:12:00,85.9,36.0,29.73,East,88,17.0,17.0,17,0.00,,,0.00,0,Wunderground v.1.15,2013-07-10 20:12:00,
2013-07-10 14:18:00,86.2,29.6,29.72,SE,124,15.0,17.0,13,0.00,,,0.00,0,Wunderground v.1.15,2013-07-10 20:18:00,
2013-07-10 14:24:00,86.4,37.9,29.72,SE,130,19.0,23.0,18,0.00,,,0.00,0,Wunderground v.1.15,2013-07-10 20:24:00,
2013-07-10 14:30:00,86.5,38.0,29.72,ESE,112,21.0,24.0,18,0.00,,,0.00,0,Wunderground v.1.15,2013-07-10 20:30:00,
2013-07-10 14:36:00,86.6,29.9,29.71,East,98,20.0,29.0,13,0.00,,,0.00,0,Wunderground v.1.15,2013-07-10 20:36:00,
2013-07-10 14:42:00,86.9,32.0,29.71,ESE,113,21.0,24.0,14,0.00,,,0.00,0,Wunderground v.1.15,2013-07-10 20:42:00,
2013-07-10 14:48:00,86.9,39.7,29.70,East,96,20.0,24.0,19,0.00,,,0.00,0,Wunderground v.1.15,2013-07-10 20:48:00,
2013-07-10 14:54:00,87.1,28.3,29.71,SSE,148,21.0,26.0,12,0.00,,,0.00,0,Wunderground v.1.15,2013-07-10 20:54:00,
2013-07-10 15:00:00,87.3,38.6,29.71,SE,131,19.0,19.0,18,0.00,,,0.00,0,Wunderground v.1.15,2013-07-10 21:00:00,
2013-07-10 15:06:00,87.2,38.5,29.70,SE,142,17.0,21.0,18,0.00,,,0.00,0,Wunderground v.1.15,2013-07-10 21:06:00,
2013-07-10 15:12:00,87.5,34.1,29.69,SE,138,20.0,25.0,15,0.00,,,0.00,0,Wunderground v.1.15,2013-07-10 21:12:00,
2013-07-10 15:18:00,87.7,32.6,29.69,SE,131,23.0,25.0,14,0.00,,,0.00,0,Wunderground v.1.15,2013-07-10 21:18:00,
2013-07-10 15:24:00,87.3,35.6,29.69,SE,128,22.0,25.0,16,0.00,,,0.00,0,Wunderground v.1.15,2013-07-10 21:24:00,
2013-07-10 15:30:00,87.4,40.1,29.68,SE,137,20.0,20.0,19,0.00,,,0.00,0,Wunderground v.1.15,2013-07-10 21:30:00,
2013-07-10 15:36:00,87.2,32.2,29.68,ESE,116,20.0,20.0,14,0.00,,,0.00,0,Wunderground v.1.15,2013-07-10 21:36:00,
2013-07-10 15:42:00,87.8,36.0,29.67,SE,137,20.0,27.0,16,0.00,,,0.00,0,Wunderground v.1.15,2013-07-10 21:42:00,
2013-07-10 15:48:00,88.0,29.0,29.67,East,100,23.0,27.0,12,0.00,,,0.00,0,Wunderground v.1.15,2013-07-10 21:48:00,
2013-07-10 15:54:00,88.1,37.8,29.67,SSE,149,21.0,24.0,17,0.00,,,0.00,0,Wunderground v.1.15,2013-07-10 21:54:00,
2013-07-10 16:00:00,88.1,36.3,29.66,SE,127,18.0,18.0,16,0.00,,,0.00,0,Wunderground v.1.15,2013-07-10 22:00:00,
2013-07-10 16:06:00,88.2,31.1,29.66,ESE,116,16.0,21.0,13,0.00,,,0.00,0,Wunderground v.1.15,2013-07-10 22:06:00,
2013-07-10 16:12:00,88.3,34.8,29.65,SE,129,21.0,24.0,15,0.00,,,0.00,0,Wunderground v.1.15,2013-07-10 22:12:00,
2013-07-10 16:18:00,88.4,34.9,29.65,SSE,162,23.0,27.0,15,0.00,,,0.00,0,Wunderground v.1.15,2013-07-10 22:18:00,
2013-07-10 16:24:00,88.5,38.1,29.65,SE,141,22.0,24.0,17,0.00,,,0.00,0,Wunderground v.1.15,2013-07-10 22:24:00,
2013-07-10 16:30:00,88.5,38.1,29.65,ESE,119,24.0,24.0,17,0.00,,,0.00,0,Wunderground v.1.15,2013-07-10 22:30:00,
2013-07-10 16:36:00,88.0,36.2,29.66,South,177,23.0,28.0,16,0.00,,,0.00,0,Wunderground v.1.15,2013-07-10 22:36:00,
2013-07-10 16:42:00,87.5,35.8,29.66,South,184,18.0,19.0,16,0.00,,,0.00,0,Wunderground v.1.15,2013-07-10 22:42:00,
2013-07-10 16:48:00,87.7,40.3,29.65,SW,216,13.0,19.0,19,0.00,,,0.00,0,Wunderground v.1.15,2013-07-10 22:48:00,
2013-07-10 16:54:00,87.7,40.3,29.64,SW,223,12.0,12.0,19,0.00,,,0.00,0,Wunderground v.1.15,2013-07-10 22:54:00,
2013-07-10 17:00:00,88.0,36.2,29.64,SSW,212,10.0,13.0,16,0.00,,,0.00,0,Wunderground v.1.15,2013-07-10 23:00:00,
2013-07-10 17:06:00,88.3,34.8,29.64,South,187,9.0,16.0,15,0.00,,,0.00,0,Wunderground v.1.15,2013-07-10 23:06:00,
2013-07-10 17:12:00,87.9,40.5,29.64,South,190,12.0,16.0,19,0.00,,,0.00,0,Wunderground v.1.15,2013-07-10 23:12:00,
2013-07-10 17:20:00,87.4,37.2,29.63,SW,217,11.0,11.0,17,0.00,,,0.00,0,Wunderground v.1.15,2013-07-10 23:20:00,
2013-07-10 17:26:00,87.6,38.8,29.63,SW,220,9.0,11.0,18,0.00,,,0.00,0,Wunderground v.1.15,2013-07-10 23:26:00,
2013-07-10 17:32:00,88.3,39.4,29.63,SSW,192,7.0,14.0,18,0.00,,,0.00,0,Wunderground v.1.15,2013-07-10 23:32:00,
2013-07-10 17:38:00,88.1,44.5,29.62,SW,224,9.0,14.0,22,0.00,,,0.00,0,Wunderground v.1.15,2013-07-10 23:38:00,
2013-07-10 17:44:00,87.9,44.3,29.62,SSW,201,9.0,10.0,22,0.00,,,0.00,0,Wunderground v.1.15,2013-07-10 23:44:00,
2013-07-10 17:50:00,88.1,37.8,29.62,South,179,9.0,12.0,17,0.00,,,0.00,0,Wunderground v.1.15,2013-07-10 23:50:00,
2013-07-10 17:56:00,88.1,40.6,29.61,South,189,12.0,16.0,19,0.00,,,0.00,0,Wunderground v.1.15,2013-07-10 23:56:00,
2013-07-10 18:02:00,88.3,36.4,29.61,SSW,193,9.0,10.0,16,0.00,,,0.00,0,Wunderground v.1.15,2013-07-11 00:02:00,
2013-07-10 18:08:00,88.6,41.1,29.61,South,190,8.0,10.0,19,0.00,,,0.00,0,Wunderground v.1.15,2013-07-11 00:08:00,
2013-07-10 18:14:00,88.6,36.7,29.60,South,183,10.0,10.0,16,0.00,,,0.00,0,Wunderground v.1.15,2013-07-11 00:14:00,
2013-07-10 18:20:00,88.9,35.3,29.60,South,175,10.0,10.0,15,0.00,,,0.00,0,Wunderground v.1.15,2013-07-11 00:20:00,
2013-07-10 18:26:00,88.7,39.7,29.59,South,190,11.0,13.0,18,0.00,,,0.00,0,Wunderground v.1.15,2013-07-11 00:26:00,
2013-07-10 18:32:00,88.6,38.2,29.59,South,177,12.0,12.0,17,0.00,,,0.00,0,Wunderground v.1.15,2013-07-11 00:32:00,
2013-07-10 18:38:00,88.4,38.0,29.59,South,172,12.0,13.0,17,0.00,,,0.00,0,Wunderground v.1.15,2013-07-11 00:38:00,
2013-07-10 18:44:00,88.3,34.8,29.59,SSE,162,12.0,13.0,15,0.00,,,0.00,0,Wunderground v.1.15,2013-07-11 00:44:00,
2013-07-10 18:50:00,88.4,34.9,29.59,SSE,158,10.0,10.0,15,0.00,,,0.00,0,Wunderground v.1.15,2013-07-11 00:50:00,
2013-07-10 18:56:00,88.2,40.7,29.59,SSE,158,8.0,10.0,19,0.00,,,0.00,0,Wunderground v.1.15,2013-07-11 00:56:00,
2013-07-10 19:02:00,87.5,44.0,29.59,ESE,120,7.0,12.0,22,0.00,,,0.00,0,Wunderground v.1.15,2013-07-11 01:02:00,
2013-07-10 19:08:00,87.4,38.7,29.59,South,176,12.0,18.0,18,0.00,,,0.00,0,Wunderground v.1.15,2013-07-11 01:08:00,
2013-07-10 19:14:00,86.8,38.2,29.59,SSW,193,16.0,18.0,18,0.00,,,0.00,0,Wunderground v.1.15,2013-07-11 01:14:00,
2013-07-10 19:20:00,86.7,38.1,29.59,SSW,210,14.0,14.0,18,0.00,,,0.00,0,Wunderground v.1.15,2013-07-11 01:20:00,
2013-07-10 19:26:00,87.0,42.3,29.59,SSW,210,9.0,14.0,21,0.00,,,0.00,0,Wunderground v.1.15,2013-07-11 01:26:00,
2013-07-10 19:32:00,86.6,36.6,29.59,SW,229,6.0,8.0,17,0.00,,,0.00,0,Wunderground v.1.15,2013-07-11 01:32:00,
2013-07-10 19:38:00,86.4,37.9,29.59,SW,229,4.0,8.0,18,0.00,,,0.00,0,Wunderground v.1.15,2013-07-11 01:38:00,
2013-07-10 19:44:00,86.1,39.0,29.59,NNW,333,2.0,8.0,19,0.00,,,0.00,0,Wunderground v.1.15,2013-07-11 01:44:00,
2013-07-10 19:50:00,85.6,38.6,29.58,NNW,337,3.0,8.0,19,0.00,,,0.00,0,Wunderground v.1.15,2013-07-11 01:50:00,
2013-07-10 19:56:00,85.6,37.2,29.58,NNW,337,3.0,8.0,18,0.00,,,0.00,0,Wunderground v.1.15,2013-07-11 01:56:00,
2013-07-10 20:06:00,85.9,36.0,29.58,NNW,337,3.0,8.0,17,0.00,,,0.00,0,Wunderground v.1.15,2013-07-11 02:06:00,
2013-07-10 20:14:00,86.0,36.1,29.57,NNW,338,3.0,8.0,17,0.00,,,0.00,0,Wunderground v.1.15,2013-07-11 02:14:00,
2013-07-10 20:22:00,86.3,36.3,29.57,North,360,3.0,8.0,17,0.00,,,0.00,0,Wunderground v.1.15,2013-07-11 02:22:00,
2013-07-10 20:32:00,86.4,39.3,29.57,ENE,70,3.0,8.0,19,0.00,,,0.00,0,Wunderground v.1.15,2013-07-11 02:32:00,
2013-07-10 20:40:00,86.3,40.5,29.57,NE,56,4.0,4.0,20,0.00,,,0.00,0,Wunderground v.1.15,2013-07-11 02:40:00,
2013-07-10 20:50:00,84.2,50.3,29.57,WSW,255,5.0,8.0,31,0.00,,,0.00,72,Wunderground v.1.15,2013-07-11 02:50:00,
2013-07-10 20:58:00,82.8,46.4,29.57,SW,230,6.0,8.0,28,0.00,,,0.00,95,Wunderground v.1.15,2013-07-11 02:58:00,
2013-07-10 21:04:00,82.4,43.0,29.57,SW,221,7.0,8.0,25,0.00,,,0.00,105,Wunderground v.1.15,2013-07-11 03:04:00,
2013-07-10 21:10:00,81.9,40.5,29.57,SW,231,6.0,8.0,23,0.00,,,0.00,139,Wunderground v.1.15,2013-07-11 03:10:00,
2013-07-10 21:16:00,81.6,45.3,29.56,West,270,4.0,8.0,28,0.00,,,0.00,165,Wunderground v.1.15,2013-07-11 03:16:00,
2013-07-10 21:22:00,80.9,48.3,29.56,West,270,3.0,8.0,32,0.00,,,0.00,178,Wunderground v.1.15,2013-07-11 03:22:00,
2013-07-10 21:28:00,80.3,46.9,29.56,West,270,2.0,8.0,31,0.00,,,0.00,185,Wunderground v.1.15,2013-07-11 03:28:00,
2013-07-10 21:38:00,79.7,48.0,29.56,West,269,2.0,8.0,33,0.00,,,0.00,186,Wunderground v.1.15,2013-07-11 03:38:00,
2013-07-10 21:46:00,79.3,46.9,29.56,West,269,1.0,8.0,32,0.00,,,0.00,185,Wunderground v.1.15,2013-07-11 03:46:00,
2013-07-10 21:52:00,78.9,47.3,29.56,NE,38,2.0,8.0,33,0.00,,,0.00,181,Wunderground v.1.15,2013-07-11 03:52:00,
2013-07-10 22:04:00,75.4,51.3,29.57,ESE,116,11.0,11.0,43,0.00,,,0.00,174,Wunderground v.1.15,2013-07-11 04:04:00,
2013-07-10 22:06:00,74.7,53.1,29.57,ESE,120,11.0,11.0,47,0.00,,,0.00,171,Wunderground v.1.15,2013-07-11 04:06:00,
2013-07-10 22:16:00,75.4,45.1,29.56,East,87,10.0,12.0,34,0.00,,,0.00,169,Wunderground v.1.15,2013-07-11 04:16:00,
2013-07-10 22:22:00,74.8,52.6,29.57,ESE,111,7.0,8.0,46,0.00,,,0.00,169,Wunderground v.1.15,2013-07-11 04:22:00,
2013-07-10 22:32:00,74.1,46.2,29.57,East,98,7.0,9.0,37,0.00,,,0.00,162,Wunderground v.1.15,2013-07-11 04:32:00,
2013-07-10 22:42:00,73.8,47.3,29.57,East,96,8.0,8.0,39,0.00,,,0.00,160,Wunderground v.1.15,2013-07-11 04:42:00,
2013-07-10 22:48:00,73.7,47.2,29.57,East,85,7.0,8.0,39,0.00,,,0.00,158,Wunderground v.1.15,2013-07-11 04:48:00,
2013-07-10 22:54:00,73.7,44.3,29.58,East,81,7.0,8.0,35,0.00,,,0.00,158,Wunderground v.1.15,2013-07-11 04:54:00,
2013-07-10 23:04:00,74.3,49.1,29.59,East,87,9.0,12.0,41,0.00,,,0.00,162,Wunderground v.1.15,2013-07-11 05:04:00,
2013-07-10 23:10:00,74.6,45.9,29.59,ENE,60,11.0,12.0,36,0.00,,,0.00,163,Wunderground v.1.15,2013-07-11 05:10:00,
2013-07-10 23:16:00,75.1,43.2,29.59,NE,40,12.0,12.0,32,0.00,,,0.00,167,Wunderground v.1.15,2013-07-11 05:16:00,
2013-07-10 23:28:00,76.5,42.7,29.58,NE,47,7.0,12.0,30,0.00,,,0.00,174,Wunderground v.1.15,2013-07-11 05:28:00,
2013-07-10 23:34:00,77.3,44.3,29.58,NNE,33,7.0,11.0,31,0.00,,,0.00,178,Wunderground v.1.15,2013-07-11 05:34:00,
2013-07-10 23:40:00,78.8,38.9,29.57,NNE,27,6.0,6.0,24,0.00,,,0.00,183,Wunderground v.1.15,2013-07-11 05:40:00,
2013-07-10 23:46:00,79.5,41.6,29.56,NNE,27,3.0,8.0,26,0.00,,,0.00,190,Wunderground v.1.15,2013-07-11 05:46:00,
2013-07-10 23:52:00,79.3,41.4,29.57,NE,43,4.0,8.0,26,0.00,,,0.00,192,Wunderground v.1.15,2013-07-11 05:52:00,
2013-07-10 23:58:00,79.1,38.1,29.56,NE,48,6.0,8.0,23,0.00,,,0.00,190,Wunderground v.1.15,2013-07-11 05:58:00,